sensor_id;sensor_type;location;lat;lon;timestamp;P1;durP1;ratioP1;P2;durP2;ratioP2
17917;SDS011;9084;50.956;3.106;2022-11-20T00:01:53;15.70;;;12.67;;
17917;SDS011;9084;50.956;3.106;2022-11-20T00:04:19;17.60;;;13.57;;
17917;SDS011;9084;50.956;3.106;2022-11-20T00:06:45;15.67;;;12.33;;
17917;SDS011;9084;50.956;3.106;2022-11-20T00:09:12;14.80;;;12.70;;
17917;SDS011;9084;50.956;3.106;2022-11-20T00:11:39;17.40;;;14.87;;
17917;SDS011;9084;50.956;3.106;2022-11-20T00:14:08;18.00;;;13.70;;
17917;SDS011;9084;50.956;3.106;2022-11-20T00:16:35;20.00;;;14.40;;
17917;SDS011;9084;50.956;3.106;2022-11-20T00:19:01;16.33;;;13.83;;
17917;SDS011;9084;50.956;3.106;2022-11-20T00:21:27;22.20;;;14.93;;
17917;SDS011;9084;50.956;3.106;2022-11-20T00:23:57;21.27;;;15.23;;
17917;SDS011;9084;50.956;3.106;2022-11-20T00:26:28;17.57;;;13.43;;
17917;SDS011;9084;50.956;3.106;2022-11-20T00:28:55;19.23;;;13.30;;
17917;SDS011;9084;50.956;3.106;2022-11-20T00:31:23;20.00;;;13.97;;
17917;SDS011;9084;50.956;3.106;2022-11-20T00:33:49;17.70;;;13.93;;
17917;SDS011;9084;50.956;3.106;2022-11-20T00:36:18;18.10;;;15.00;;
17917;SDS011;9084;50.956;3.106;2022-11-20T00:38:46;19.23;;;16.57;;
17917;SDS011;9084;50.956;3.106;2022-11-20T00:41:13;19.67;;;16.23;;
17917;SDS011;9084;50.956;3.106;2022-11-20T00:43:42;19.40;;;16.60;;
17917;SDS011;9084;50.956;3.106;2022-11-20T00:46:18;19.03;;;16.50;;
17917;SDS011;9084;50.956;3.106;2022-11-20T00:48:47;20.20;;;16.43;;
17917;SDS011;9084;50.956;3.106;2022-11-20T00:51:17;20.17;;;16.60;;
17917;SDS011;9084;50.956;3.106;2022-11-20T00:53:44;20.47;;;15.20;;
17917;SDS011;9084;50.956;3.106;2022-11-20T00:56:12;19.20;;;14.87;;
17917;SDS011;9084;50.956;3.106;2022-11-20T00:58:40;18.93;;;15.47;;
17917;SDS011;9084;50.956;3.106;2022-11-20T01:01:13;17.43;;;14.43;;
17917;SDS011;9084;50.956;3.106;2022-11-20T01:03:43;18.43;;;14.77;;
17917;SDS011;9084;50.956;3.106;2022-11-20T01:06:46;20.30;;;15.43;;
17917;SDS011;9084;50.956;3.106;2022-11-20T01:09:06;18.83;;;15.40;;
17917;SDS011;9084;50.956;3.106;2022-11-20T01:11:36;20.97;;;17.10;;
17917;SDS011;9084;50.956;3.106;2022-11-20T01:14:04;25.67;;;18.83;;
17917;SDS011;9084;50.956;3.106;2022-11-20T01:16:33;25.50;;;19.27;;
17917;SDS011;9084;50.956;3.106;2022-11-20T01:19:02;26.63;;;20.47;;
17917;SDS011;9084;50.956;3.106;2022-11-20T01:21:31;29.93;;;19.27;;
17917;SDS011;9084;50.956;3.106;2022-11-20T01:23:58;26.70;;;18.40;;
17917;SDS011;9084;50.956;3.106;2022-11-20T01:26:30;30.13;;;18.83;;
17917;SDS011;9084;50.956;3.106;2022-11-20T01:28:57;28.47;;;19.67;;
17917;SDS011;9084;50.956;3.106;2022-11-20T01:31:28;32.70;;;20.80;;
17917;SDS011;9084;50.956;3.106;2022-11-20T01:33:56;30.70;;;22.07;;
17917;SDS011;9084;50.956;3.106;2022-11-20T01:36:25;31.93;;;19.50;;
17917;SDS011;9084;50.956;3.106;2022-11-20T01:38:52;29.87;;;20.67;;
17917;SDS011;9084;50.956;3.106;2022-11-20T01:41:22;31.63;;;22.23;;
17917;SDS011;9084;50.956;3.106;2022-11-20T01:44:08;33.10;;;21.10;;
17917;SDS011;9084;50.956;3.106;2022-11-20T01:46:40;35.83;;;21.37;;
17917;SDS011;9084;50.956;3.106;2022-11-20T01:49:19;34.07;;;20.50;;
17917;SDS011;9084;50.956;3.106;2022-11-20T01:51:49;31.33;;;20.47;;
17917;SDS011;9084;50.956;3.106;2022-11-20T01:54:47;34.77;;;20.93;;
17917;SDS011;9084;50.956;3.106;2022-11-20T01:57:14;37.93;;;22.60;;
17917;SDS011;9084;50.956;3.106;2022-11-20T01:59:46;37.30;;;21.50;;
17917;SDS011;9084;50.956;3.106;2022-11-20T02:02:19;36.83;;;22.43;;
17917;SDS011;9084;50.956;3.106;2022-11-20T02:04:48;35.87;;;21.90;;
17917;SDS011;9084;50.956;3.106;2022-11-20T02:07:16;36.83;;;22.47;;
17917;SDS011;9084;50.956;3.106;2022-11-20T02:09:43;33.70;;;21.30;;
17917;SDS011;9084;50.956;3.106;2022-11-20T02:12:08;36.63;;;23.17;;
17917;SDS011;9084;50.956;3.106;2022-11-20T02:14:54;34.00;;;22.63;;
17917;SDS011;9084;50.956;3.106;2022-11-20T02:17:22;39.50;;;24.33;;
17917;SDS011;9084;50.956;3.106;2022-11-20T02:19:49;36.10;;;22.83;;
17917;SDS011;9084;50.956;3.106;2022-11-20T02:22:24;33.93;;;24.13;;
17917;SDS011;9084;50.956;3.106;2022-11-20T02:24:58;38.23;;;24.43;;
17917;SDS011;9084;50.956;3.106;2022-11-20T02:27:26;34.00;;;22.13;;
17917;SDS011;9084;50.956;3.106;2022-11-20T02:29:56;35.43;;;21.40;;
17917;SDS011;9084;50.956;3.106;2022-11-20T02:34:53;41.37;;;25.10;;
17917;SDS011;9084;50.956;3.106;2022-11-20T02:37:22;37.40;;;25.60;;
17917;SDS011;9084;50.956;3.106;2022-11-20T02:39:55;38.40;;;24.73;;
17917;SDS011;9084;50.956;3.106;2022-11-20T02:42:24;41.53;;;26.37;;
17917;SDS011;9084;50.956;3.106;2022-11-20T02:44:49;44.90;;;26.37;;
17917;SDS011;9084;50.956;3.106;2022-11-20T02:47:15;43.00;;;25.73;;
17917;SDS011;9084;50.956;3.106;2022-11-20T02:49:41;42.80;;;26.73;;
17917;SDS011;9084;50.956;3.106;2022-11-20T02:52:09;43.83;;;28.03;;
17917;SDS011;9084;50.956;3.106;2022-11-20T02:54:37;46.37;;;26.67;;
17917;SDS011;9084;50.956;3.106;2022-11-20T02:57:03;42.10;;;25.13;;
17917;SDS011;9084;50.956;3.106;2022-11-20T02:59:29;45.17;;;27.40;;
17917;SDS011;9084;50.956;3.106;2022-11-20T03:01:55;42.20;;;26.80;;
17917;SDS011;9084;50.956;3.106;2022-11-20T03:04:21;45.00;;;28.27;;
17917;SDS011;9084;50.956;3.106;2022-11-20T03:06:47;46.47;;;28.33;;
17917;SDS011;9084;50.956;3.106;2022-11-20T03:09:13;41.93;;;24.87;;
17917;SDS011;9084;50.956;3.106;2022-11-20T03:11:39;41.00;;;24.37;;
17917;SDS011;9084;50.956;3.106;2022-11-20T03:14:07;46.17;;;26.47;;
17917;SDS011;9084;50.956;3.106;2022-11-20T03:16:35;42.73;;;25.10;;
17917;SDS011;9084;50.956;3.106;2022-11-20T03:19:01;45.00;;;27.53;;
17917;SDS011;9084;50.956;3.106;2022-11-20T03:21:27;43.70;;;26.20;;
17917;SDS011;9084;50.956;3.106;2022-11-20T03:23:53;42.23;;;26.13;;
17917;SDS011;9084;50.956;3.106;2022-11-20T03:26:25;45.83;;;26.93;;
17917;SDS011;9084;50.956;3.106;2022-11-20T03:28:52;38.87;;;24.53;;
17917;SDS011;9084;50.956;3.106;2022-11-20T03:31:30;34.20;;;22.67;;
17917;SDS011;9084;50.956;3.106;2022-11-20T03:33:58;36.60;;;23.70;;
17917;SDS011;9084;50.956;3.106;2022-11-20T03:36:28;38.23;;;22.33;;
17917;SDS011;9084;50.956;3.106;2022-11-20T03:38:56;34.10;;;22.47;;
17917;SDS011;9084;50.956;3.106;2022-11-20T03:41:24;35.70;;;23.23;;
17917;SDS011;9084;50.956;3.106;2022-11-20T03:43:54;38.57;;;23.77;;
17917;SDS011;9084;50.956;3.106;2022-11-20T03:46:22;42.40;;;25.77;;
17917;SDS011;9084;50.956;3.106;2022-11-20T03:48:48;43.27;;;24.87;;
17917;SDS011;9084;50.956;3.106;2022-11-20T03:51:19;39.83;;;24.93;;
17917;SDS011;9084;50.956;3.106;2022-11-20T03:53:51;39.60;;;26.93;;
17917;SDS011;9084;50.956;3.106;2022-11-20T03:56:18;34.63;;;22.53;;
17917;SDS011;9084;50.956;3.106;2022-11-20T03:58:47;38.47;;;24.13;;
17917;SDS011;9084;50.956;3.106;2022-11-20T04:01:17;40.87;;;24.77;;
17917;SDS011;9084;50.956;3.106;2022-11-20T04:03:47;40.00;;;24.67;;
17917;SDS011;9084;50.956;3.106;2022-11-20T04:06:14;35.23;;;23.03;;
17917;SDS011;9084;50.956;3.106;2022-11-20T04:08:44;34.37;;;22.07;;
17917;SDS011;9084;50.956;3.106;2022-11-20T04:11:14;33.53;;;21.77;;
17917;SDS011;9084;50.956;3.106;2022-11-20T04:13:51;41.17;;;23.30;;
17917;SDS011;9084;50.956;3.106;2022-11-20T04:16:24;40.00;;;26.80;;
17917;SDS011;9084;50.956;3.106;2022-11-20T04:18:51;32.00;;;21.93;;
17917;SDS011;9084;50.956;3.106;2022-11-20T04:21:18;39.07;;;22.47;;
17917;SDS011;9084;50.956;3.106;2022-11-20T04:23:44;38.97;;;26.60;;
17917;SDS011;9084;50.956;3.106;2022-11-20T04:26:11;38.97;;;25.03;;
17917;SDS011;9084;50.956;3.106;2022-11-20T04:28:38;39.87;;;26.43;;
17917;SDS011;9084;50.956;3.106;2022-11-20T04:31:05;38.67;;;26.17;;
17917;SDS011;9084;50.956;3.106;2022-11-20T04:33:40;38.83;;;22.80;;
17917;SDS011;9084;50.956;3.106;2022-11-20T04:36:07;36.10;;;22.87;;
17917;SDS011;9084;50.956;3.106;2022-11-20T04:38:39;36.77;;;23.17;;
17917;SDS011;9084;50.956;3.106;2022-11-20T04:41:08;36.63;;;21.87;;
17917;SDS011;9084;50.956;3.106;2022-11-20T04:43:40;37.67;;;24.03;;
17917;SDS011;9084;50.956;3.106;2022-11-20T04:46:10;37.23;;;22.40;;
17917;SDS011;9084;50.956;3.106;2022-11-20T04:48:36;34.33;;;23.53;;
17917;SDS011;9084;50.956;3.106;2022-11-20T04:51:02;36.90;;;22.47;;
17917;SDS011;9084;50.956;3.106;2022-11-20T04:53:31;40.17;;;22.33;;
17917;SDS011;9084;50.956;3.106;2022-11-20T04:56:00;31.87;;;20.53;;
17917;SDS011;9084;50.956;3.106;2022-11-20T04:58:33;33.40;;;20.43;;
17917;SDS011;9084;50.956;3.106;2022-11-20T05:03:28;29.33;;;18.90;;
17917;SDS011;9084;50.956;3.106;2022-11-20T05:05:54;31.53;;;18.90;;
17917;SDS011;9084;50.956;3.106;2022-11-20T05:08:20;30.47;;;18.17;;
17917;SDS011;9084;50.956;3.106;2022-11-20T05:10:46;27.87;;;17.23;;
17917;SDS011;9084;50.956;3.106;2022-11-20T05:13:12;28.00;;;17.07;;
17917;SDS011;9084;50.956;3.106;2022-11-20T05:15:40;30.00;;;19.10;;
17917;SDS011;9084;50.956;3.106;2022-11-20T05:18:05;28.77;;;18.30;;
17917;SDS011;9084;50.956;3.106;2022-11-20T05:20:31;26.33;;;17.80;;
17917;SDS011;9084;50.956;3.106;2022-11-20T05:22:57;29.87;;;17.87;;
17917;SDS011;9084;50.956;3.106;2022-11-20T05:25:25;30.27;;;18.90;;
17917;SDS011;9084;50.956;3.106;2022-11-20T05:27:51;28.13;;;17.90;;
17917;SDS011;9084;50.956;3.106;2022-11-20T05:30:17;30.83;;;19.00;;
17917;SDS011;9084;50.956;3.106;2022-11-20T05:32:43;30.43;;;18.23;;
17917;SDS011;9084;50.956;3.106;2022-11-20T05:35:09;30.27;;;18.77;;
17917;SDS011;9084;50.956;3.106;2022-11-20T05:37:38;29.73;;;18.10;;
17917;SDS011;9084;50.956;3.106;2022-11-20T05:40:04;29.13;;;20.10;;
17917;SDS011;9084;50.956;3.106;2022-11-20T05:42:33;25.90;;;17.10;;
17917;SDS011;9084;50.956;3.106;2022-11-20T05:45:02;29.73;;;18.63;;
17917;SDS011;9084;50.956;3.106;2022-11-20T05:47:33;27.57;;;17.10;;
17917;SDS011;9084;50.956;3.106;2022-11-20T05:50:02;27.27;;;17.20;;
17917;SDS011;9084;50.956;3.106;2022-11-20T05:52:28;26.43;;;16.77;;
17917;SDS011;9084;50.956;3.106;2022-11-20T05:54:55;25.67;;;16.97;;
17917;SDS011;9084;50.956;3.106;2022-11-20T05:57:21;22.47;;;15.43;;
17917;SDS011;9084;50.956;3.106;2022-11-20T05:59:51;25.30;;;17.27;;
17917;SDS011;9084;50.956;3.106;2022-11-20T06:02:17;21.40;;;15.27;;
17917;SDS011;9084;50.956;3.106;2022-11-20T06:04:43;23.90;;;16.47;;
17917;SDS011;9084;50.956;3.106;2022-11-20T06:07:11;24.43;;;16.10;;
17917;SDS011;9084;50.956;3.106;2022-11-20T06:09:37;24.80;;;15.90;;
17917;SDS011;9084;50.956;3.106;2022-11-20T06:12:04;20.27;;;15.60;;
17917;SDS011;9084;50.956;3.106;2022-11-20T06:14:33;21.97;;;14.87;;
17917;SDS011;9084;50.956;3.106;2022-11-20T06:17:01;24.07;;;16.30;;
17917;SDS011;9084;50.956;3.106;2022-11-20T06:19:26;21.50;;;15.23;;
17917;SDS011;9084;50.956;3.106;2022-11-20T06:21:55;24.13;;;17.47;;
17917;SDS011;9084;50.956;3.106;2022-11-20T06:24:21;21.40;;;16.83;;
17917;SDS011;9084;50.956;3.106;2022-11-20T06:26:47;20.87;;;14.50;;
17917;SDS011;9084;50.956;3.106;2022-11-20T06:29:15;25.27;;;16.80;;
17917;SDS011;9084;50.956;3.106;2022-11-20T06:31:43;23.30;;;15.73;;
17917;SDS011;9084;50.956;3.106;2022-11-20T06:34:09;21.30;;;15.30;;
17917;SDS011;9084;50.956;3.106;2022-11-20T06:36:35;22.03;;;14.87;;
17917;SDS011;9084;50.956;3.106;2022-11-20T06:39:03;23.00;;;14.90;;
17917;SDS011;9084;50.956;3.106;2022-11-20T06:41:29;20.63;;;14.20;;
17917;SDS011;9084;50.956;3.106;2022-11-20T06:43:56;26.00;;;16.13;;
17917;SDS011;9084;50.956;3.106;2022-11-20T06:46:21;22.73;;;15.03;;
17917;SDS011;9084;50.956;3.106;2022-11-20T06:48:48;23.50;;;15.60;;
17917;SDS011;9084;50.956;3.106;2022-11-20T06:51:15;24.60;;;15.73;;
17917;SDS011;9084;50.956;3.106;2022-11-20T06:53:43;22.60;;;15.20;;
17917;SDS011;9084;50.956;3.106;2022-11-20T06:56:10;22.10;;;15.00;;
17917;SDS011;9084;50.956;3.106;2022-11-20T06:58:36;20.53;;;13.83;;
17917;SDS011;9084;50.956;3.106;2022-11-20T07:01:03;24.63;;;15.30;;
17917;SDS011;9084;50.956;3.106;2022-11-20T07:03:34;22.23;;;15.30;;
17917;SDS011;9084;50.956;3.106;2022-11-20T07:06:00;17.60;;;12.57;;
17917;SDS011;9084;50.956;3.106;2022-11-20T07:08:27;20.97;;;15.70;;
17917;SDS011;9084;50.956;3.106;2022-11-20T07:10:56;23.77;;;15.90;;
17917;SDS011;9084;50.956;3.106;2022-11-20T07:13:24;21.43;;;15.83;;
17917;SDS011;9084;50.956;3.106;2022-11-20T07:15:50;19.30;;;13.67;;
17917;SDS011;9084;50.956;3.106;2022-11-20T07:18:16;20.30;;;14.13;;
17917;SDS011;9084;50.956;3.106;2022-11-20T07:20:46;20.53;;;14.33;;
17917;SDS011;9084;50.956;3.106;2022-11-20T07:23:14;21.30;;;14.57;;
17917;SDS011;9084;50.956;3.106;2022-11-20T07:25:39;21.50;;;13.70;;
17917;SDS011;9084;50.956;3.106;2022-11-20T07:28:06;16.57;;;13.63;;
17917;SDS011;9084;50.956;3.106;2022-11-20T07:30:35;20.50;;;13.53;;
17917;SDS011;9084;50.956;3.106;2022-11-20T07:33:01;18.70;;;13.20;;
17917;SDS011;9084;50.956;3.106;2022-11-20T07:35:29;18.60;;;13.07;;
17917;SDS011;9084;50.956;3.106;2022-11-20T07:37:54;19.57;;;13.30;;
17917;SDS011;9084;50.956;3.106;2022-11-20T07:40:20;18.17;;;12.97;;
17917;SDS011;9084;50.956;3.106;2022-11-20T07:42:49;20.23;;;14.17;;
17917;SDS011;9084;50.956;3.106;2022-11-20T07:45:16;19.27;;;14.53;;
17917;SDS011;9084;50.956;3.106;2022-11-20T07:47:47;21.77;;;17.67;;
17917;SDS011;9084;50.956;3.106;2022-11-20T07:50:16;19.83;;;17.50;;
17917;SDS011;9084;50.956;3.106;2022-11-20T07:52:44;26.57;;;21.33;;
17917;SDS011;9084;50.956;3.106;2022-11-20T07:55:11;23.27;;;18.37;;
17917;SDS011;9084;50.956;3.106;2022-11-20T07:57:37;20.10;;;14.90;;
17917;SDS011;9084;50.956;3.106;2022-11-20T08:00:04;17.75;;;13.45;;
17917;SDS011;9084;50.956;3.106;2022-11-20T08:02:36;19.70;;;14.77;;
17917;SDS011;9084;50.956;3.106;2022-11-20T08:05:03;17.80;;;13.03;;
17917;SDS011;9084;50.956;3.106;2022-11-20T08:07:34;18.83;;;13.23;;
17917;SDS011;9084;50.956;3.106;2022-11-20T08:10:07;16.83;;;13.03;;
17917;SDS011;9084;50.956;3.106;2022-11-20T08:12:34;14.87;;;12.77;;
17917;SDS011;9084;50.956;3.106;2022-11-20T08:15:21;18.60;;;13.20;;
17917;SDS011;9084;50.956;3.106;2022-11-20T08:17:47;16.40;;;12.67;;
17917;SDS011;9084;50.956;3.106;2022-11-20T08:20:13;19.83;;;14.27;;
17917;SDS011;9084;50.956;3.106;2022-11-20T08:22:39;17.00;;;13.13;;
17917;SDS011;9084;50.956;3.106;2022-11-20T08:25:05;17.73;;;13.23;;
17917;SDS011;9084;50.956;3.106;2022-11-20T08:27:32;17.97;;;13.63;;
17917;SDS011;9084;50.956;3.106;2022-11-20T08:30:00;17.03;;;12.93;;
17917;SDS011;9084;50.956;3.106;2022-11-20T08:32:28;16.57;;;12.00;;
17917;SDS011;9084;50.956;3.106;2022-11-20T08:34:58;15.48;;;12.05;;
17917;SDS011;9084;50.956;3.106;2022-11-20T08:37:26;16.07;;;12.93;;
17917;SDS011;9084;50.956;3.106;2022-11-20T08:39:53;16.02;;;11.88;;
17917;SDS011;9084;50.956;3.106;2022-11-20T08:42:21;15.30;;;11.57;;
17917;SDS011;9084;50.956;3.106;2022-11-20T08:44:49;15.03;;;11.30;;
17917;SDS011;9084;50.956;3.106;2022-11-20T08:47:15;14.27;;;11.53;;
17917;SDS011;9084;50.956;3.106;2022-11-20T08:49:41;13.43;;;10.10;;
17917;SDS011;9084;50.956;3.106;2022-11-20T08:52:07;16.02;;;11.35;;
17917;SDS011;9084;50.956;3.106;2022-11-20T08:54:34;12.70;;;9.93;;
17917;SDS011;9084;50.956;3.106;2022-11-20T08:57:00;12.90;;;9.53;;
17917;SDS011;9084;50.956;3.106;2022-11-20T08:59:30;13.07;;;10.45;;
17917;SDS011;9084;50.956;3.106;2022-11-20T09:01:57;12.97;;;9.47;;
17917;SDS011;9084;50.956;3.106;2022-11-20T09:04:26;11.35;;;9.43;;
17917;SDS011;9084;50.956;3.106;2022-11-20T09:06:56;10.45;;;8.38;;
17917;SDS011;9084;50.956;3.106;2022-11-20T09:09:22;10.13;;;8.75;;
17917;SDS011;9084;50.956;3.106;2022-11-20T09:11:48;9.87;;;8.03;;
17917;SDS011;9084;50.956;3.106;2022-11-20T09:14:14;10.65;;;8.02;;
17917;SDS011;9084;50.956;3.106;2022-11-20T09:16:40;13.50;;;9.48;;
17917;SDS011;9084;50.956;3.106;2022-11-20T09:19:06;11.48;;;9.13;;
17917;SDS011;9084;50.956;3.106;2022-11-20T09:21:34;8.73;;;7.93;;
17917;SDS011;9084;50.956;3.106;2022-11-20T09:24:00;8.27;;;7.43;;
17917;SDS011;9084;50.956;3.106;2022-11-20T09:26:26;11.40;;;7.50;;
17917;SDS011;9084;50.956;3.106;2022-11-20T09:28:56;8.10;;;6.55;;
17917;SDS011;9084;50.956;3.106;2022-11-20T09:31:22;7.65;;;5.93;;
17917;SDS011;9084;50.956;3.106;2022-11-20T09:33:49;6.80;;;5.60;;
17917;SDS011;9084;50.956;3.106;2022-11-20T09:36:17;5.90;;;4.35;;
17917;SDS011;9084;50.956;3.106;2022-11-20T09:38:45;4.28;;;3.45;;
17917;SDS011;9084;50.956;3.106;2022-11-20T09:46:55;3.72;;;2.55;;
17917;SDS011;9084;50.956;3.106;2022-11-20T09:53:12;2.75;;;2.10;;
17917;SDS011;9084;50.956;3.106;2022-11-20T09:55:45;2.55;;;1.58;;
17917;SDS011;9084;50.956;3.106;2022-11-20T09:58:54;3.83;;;1.80;;
17917;SDS011;9084;50.956;3.106;2022-11-20T10:01:21;2.95;;;1.60;;
17917;SDS011;9084;50.956;3.106;2022-11-20T10:06:47;5.65;;;2.30;;
17917;SDS011;9084;50.956;3.106;2022-11-20T10:09:53;2.90;;;1.55;;
17917;SDS011;9084;50.956;3.106;2022-11-20T10:23:03;3.83;;;1.67;;
17917;SDS011;9084;50.956;3.106;2022-11-20T10:31:02;6.00;;;1.80;;
17917;SDS011;9084;50.956;3.106;2022-11-20T10:33:36;4.65;;;1.95;;
17917;SDS011;9084;50.956;3.106;2022-11-20T10:36:17;5.32;;;1.85;;
17917;SDS011;9084;50.956;3.106;2022-11-20T10:38:51;3.40;;;1.55;;
17917;SDS011;9084;50.956;3.106;2022-11-20T10:41:30;2.67;;;1.60;;
17917;SDS011;9084;50.956;3.106;2022-11-20T10:44:12;2.70;;;1.95;;
17917;SDS011;9084;50.956;3.106;2022-11-20T10:47:00;4.28;;;1.70;;
17917;SDS011;9084;50.956;3.106;2022-11-20T10:49:26;3.70;;;2.05;;
17917;SDS011;9084;50.956;3.106;2022-11-20T10:54:34;6.32;;;2.20;;
17917;SDS011;9084;50.956;3.106;2022-11-20T10:57:26;4.75;;;2.25;;
17917;SDS011;9084;50.956;3.106;2022-11-20T11:00:05;4.45;;;2.30;;
17917;SDS011;9084;50.956;3.106;2022-11-20T11:02:34;3.78;;;2.03;;
17917;SDS011;9084;50.956;3.106;2022-11-20T11:08:16;3.90;;;2.70;;
17917;SDS011;9084;50.956;3.106;2022-11-20T11:13:42;7.10;;;3.25;;
17917;SDS011;9084;50.956;3.106;2022-11-20T11:16:16;2.80;;;2.47;;
17917;SDS011;9084;50.956;3.106;2022-11-20T11:18:49;5.88;;;2.80;;
17917;SDS011;9084;50.956;3.106;2022-11-20T11:21:21;3.80;;;3.40;;
17917;SDS011;9084;50.956;3.106;2022-11-20T11:24:01;3.03;;;2.73;;
17917;SDS011;9084;50.956;3.106;2022-11-20T11:26:28;4.38;;;2.85;;
17917;SDS011;9084;50.956;3.106;2022-11-20T11:28:58;3.33;;;2.75;;
17917;SDS011;9084;50.956;3.106;2022-11-20T11:31:26;4.38;;;3.97;;
17917;SDS011;9084;50.956;3.106;2022-11-20T11:36:56;4.27;;;3.00;;
17917;SDS011;9084;50.956;3.106;2022-11-20T11:39:26;6.32;;;3.95;;
17917;SDS011;9084;50.956;3.106;2022-11-20T11:41:53;5.68;;;3.13;;
17917;SDS011;9084;50.956;3.106;2022-11-20T11:44:20;3.40;;;2.92;;
17917;SDS011;9084;50.956;3.106;2022-11-20T11:47:24;4.00;;;3.13;;
17917;SDS011;9084;50.956;3.106;2022-11-20T12:04:11;5.47;;;3.35;;
17917;SDS011;9084;50.956;3.106;2022-11-20T12:06:52;4.55;;;3.10;;
17917;SDS011;9084;50.956;3.106;2022-11-20T12:09:24;3.17;;;2.75;;
17917;SDS011;9084;50.956;3.106;2022-11-20T12:12:08;3.17;;;2.10;;
17917;SDS011;9084;50.956;3.106;2022-11-20T12:14:42;4.47;;;2.70;;
17917;SDS011;9084;50.956;3.106;2022-11-20T12:17:14;2.55;;;2.35;;
17917;SDS011;9084;50.956;3.106;2022-11-20T12:19:40;3.97;;;3.67;;
17917;SDS011;9084;50.956;3.106;2022-11-20T12:25:07;3.30;;;3.00;;
17917;SDS011;9084;50.956;3.106;2022-11-20T12:36:27;2.42;;;2.00;;
17917;SDS011;9084;50.956;3.106;2022-11-20T12:41:46;2.40;;;1.52;;
17917;SDS011;9084;50.956;3.106;2022-11-20T12:47:43;2.40;;;2.20;;
17917;SDS011;9084;50.956;3.106;2022-11-20T12:59:18;2.10;;;1.63;;
17917;SDS011;9084;50.956;3.106;2022-11-20T13:02:05;1.45;;;1.35;;
17917;SDS011;9084;50.956;3.106;2022-11-20T13:07:59;1.70;;;1.60;;
17917;SDS011;9084;50.956;3.106;2022-11-20T13:13:35;1.70;;;1.60;;
17917;SDS011;9084;50.956;3.106;2022-11-20T13:16:02;2.25;;;1.10;;
17917;SDS011;9084;50.956;3.106;2022-11-20T13:18:39;1.35;;;1.25;;
17917;SDS011;9084;50.956;3.106;2022-11-20T13:21:14;1.50;;;1.40;;
17917;SDS011;9084;50.956;3.106;2022-11-20T13:23:43;1.35;;;1.25;;
17917;SDS011;9084;50.956;3.106;2022-11-20T13:26:22;1.40;;;1.30;;
17917;SDS011;9084;50.956;3.106;2022-11-20T13:31:49;1.70;;;1.20;;
17917;SDS011;9084;50.956;3.106;2022-11-20T13:34:25;1.92;;;1.73;;
17917;SDS011;9084;50.956;3.106;2022-11-20T13:36:53;2.38;;;1.20;;
17917;SDS011;9084;50.956;3.106;2022-11-20T13:39:24;2.22;;;0.98;;
17917;SDS011;9084;50.956;3.106;2022-11-20T13:41:59;1.55;;;1.10;;
17917;SDS011;9084;50.956;3.106;2022-11-20T13:44:39;2.20;;;1.15;;
17917;SDS011;9084;50.956;3.106;2022-11-20T13:50:13;1.63;;;1.10;;
17917;SDS011;9084;50.956;3.106;2022-11-20T14:03:44;4.80;;;2.17;;
17917;SDS011;9084;50.956;3.106;2022-11-20T14:06:16;4.07;;;1.90;;
17917;SDS011;9084;50.956;3.106;2022-11-20T14:08:49;5.28;;;1.83;;
17917;SDS011;9084;50.956;3.106;2022-11-20T14:11:19;4.57;;;1.73;;
17917;SDS011;9084;50.956;3.106;2022-11-20T14:16:45;8.55;;;1.77;;
17917;SDS011;9084;50.956;3.106;2022-11-20T14:21:48;5.63;;;1.77;;
17917;SDS011;9084;50.956;3.106;2022-11-20T14:24:18;7.70;;;2.00;;
17917;SDS011;9084;50.956;3.106;2022-11-20T14:26:47;8.13;;;1.70;;
17917;SDS011;9084;50.956;3.106;2022-11-20T14:29:15;2.85;;;1.95;;
17917;SDS011;9084;50.956;3.106;2022-11-20T14:31:43;10.30;;;2.75;;
17917;SDS011;9084;50.956;3.106;2022-11-20T14:34:14;6.28;;;2.22;;
17917;SDS011;9084;50.956;3.106;2022-11-20T14:36:43;5.63;;;1.83;;
17917;SDS011;9084;50.956;3.106;2022-11-20T14:39:22;9.50;;;2.00;;
17917;SDS011;9084;50.956;3.106;2022-11-20T14:42:00;8.85;;;2.38;;
17917;SDS011;9084;50.956;3.106;2022-11-20T14:44:27;7.63;;;2.25;;
17917;SDS011;9084;50.956;3.106;2022-11-20T14:46:59;6.95;;;2.40;;
17917;SDS011;9084;50.956;3.106;2022-11-20T14:49:29;8.40;;;2.72;;
17917;SDS011;9084;50.956;3.106;2022-11-20T14:52:10;11.48;;;2.90;;
17917;SDS011;9084;50.956;3.106;2022-11-20T14:54:48;10.32;;;2.63;;
17917;SDS011;9084;50.956;3.106;2022-11-20T14:57:26;5.80;;;1.83;;
17917;SDS011;9084;50.956;3.106;2022-11-20T15:02:39;6.90;;;2.30;;
17917;SDS011;9084;50.956;3.106;2022-11-20T15:05:06;7.07;;;2.97;;
17917;SDS011;9084;50.956;3.106;2022-11-20T15:07:37;10.68;;;2.70;;
17917;SDS011;9084;50.956;3.106;2022-11-20T15:10:09;9.80;;;2.42;;
17917;SDS011;9084;50.956;3.106;2022-11-20T15:12:47;10.65;;;2.90;;
17917;SDS011;9084;50.956;3.106;2022-11-20T15:15:23;7.20;;;2.58;;
17917;SDS011;9084;50.956;3.106;2022-11-20T15:18:15;8.75;;;2.92;;
17917;SDS011;9084;50.956;3.106;2022-11-20T15:20:43;7.97;;;2.35;;
17917;SDS011;9084;50.956;3.106;2022-11-20T15:23:10;9.38;;;2.85;;
17917;SDS011;9084;50.956;3.106;2022-11-20T15:25:38;5.97;;;2.67;;
17917;SDS011;9084;50.956;3.106;2022-11-20T15:28:07;15.55;;;2.95;;
17917;SDS011;9084;50.956;3.106;2022-11-20T15:30:42;10.43;;;3.13;;
17917;SDS011;9084;50.956;3.106;2022-11-20T15:33:08;9.35;;;3.35;;
17917;SDS011;9084;50.956;3.106;2022-11-20T15:35:38;9.70;;;2.95;;
17917;SDS011;9084;50.956;3.106;2022-11-20T15:38:05;11.10;;;2.92;;
17917;SDS011;9084;50.956;3.106;2022-11-20T15:40:32;8.73;;;3.17;;
17917;SDS011;9084;50.956;3.106;2022-11-20T15:42:59;11.52;;;2.45;;
17917;SDS011;9084;50.956;3.106;2022-11-20T15:45:28;9.13;;;2.67;;
17917;SDS011;9084;50.956;3.106;2022-11-20T15:48:04;13.38;;;3.85;;
17917;SDS011;9084;50.956;3.106;2022-11-20T15:50:36;8.02;;;3.67;;
17917;SDS011;9084;50.956;3.106;2022-11-20T15:53:07;9.55;;;4.00;;
17917;SDS011;9084;50.956;3.106;2022-11-20T15:55:34;7.18;;;3.67;;
17917;SDS011;9084;50.956;3.106;2022-11-20T15:57:59;12.55;;;4.20;;
17917;SDS011;9084;50.956;3.106;2022-11-20T16:00:32;11.15;;;4.22;;
17917;SDS011;9084;50.956;3.106;2022-11-20T16:03:00;14.52;;;4.47;;
17917;SDS011;9084;50.956;3.106;2022-11-20T16:05:30;35.35;;;18.48;;
17917;SDS011;9084;50.956;3.106;2022-11-20T16:07:56;12.88;;;8.00;;
17917;SDS011;9084;50.956;3.106;2022-11-20T16:10:22;13.02;;;4.63;;
17917;SDS011;9084;50.956;3.106;2022-11-20T16:12:49;13.48;;;5.28;;
17917;SDS011;9084;50.956;3.106;2022-11-20T16:15:33;8.77;;;4.32;;
17917;SDS011;9084;50.956;3.106;2022-11-20T16:18:13;10.43;;;4.72;;
17917;SDS011;9084;50.956;3.106;2022-11-20T16:20:43;10.82;;;5.35;;
17917;SDS011;9084;50.956;3.106;2022-11-20T16:23:12;12.73;;;5.88;;
17917;SDS011;9084;50.956;3.106;2022-11-20T16:25:38;10.50;;;5.15;;
17917;SDS011;9084;50.956;3.106;2022-11-20T16:28:07;11.45;;;4.40;;
17917;SDS011;9084;50.956;3.106;2022-11-20T16:30:33;9.77;;;3.90;;
17917;SDS011;9084;50.956;3.106;2022-11-20T16:33:02;12.00;;;4.05;;
17917;SDS011;9084;50.956;3.106;2022-11-20T16:35:29;11.85;;;4.03;;
17917;SDS011;9084;50.956;3.106;2022-11-20T16:37:58;8.75;;;4.15;;
17917;SDS011;9084;50.956;3.106;2022-11-20T16:40:28;12.63;;;4.75;;
17917;SDS011;9084;50.956;3.106;2022-11-20T16:42:54;10.00;;;3.90;;
17917;SDS011;9084;50.956;3.106;2022-11-20T16:45:20;10.15;;;3.88;;
17917;SDS011;9084;50.956;3.106;2022-11-20T16:47:46;9.85;;;4.10;;
17917;SDS011;9084;50.956;3.106;2022-11-20T16:50:12;9.13;;;3.90;;
17917;SDS011;9084;50.956;3.106;2022-11-20T16:52:38;9.10;;;3.85;;
17917;SDS011;9084;50.956;3.106;2022-11-20T16:55:04;8.43;;;3.35;;
17917;SDS011;9084;50.956;3.106;2022-11-20T16:57:30;11.90;;;5.30;;